Time;durP1;ratioP1;P1;durP2;ratioP2;P2;SDS_P1;SDS_P2;PMS_P1;PMS_P2;Temp;Humidity;BMP_temperature;BMP_pressure;BME280_temperature;BME280_humidity;BME280_pressure;Samples;Min_cycle;Max_cycle;Signal;HPM_P1;HPM_P2
2024/02/15 00:01:55;;;;;;;40.28;21.30;;;11.90;99.90;;;;;;5075770;28;20057;-71
2024/02/15 00:04:21;;;;;;;43.38;22.77;;;11.90;99.90;;;;;;5075929;28;20508;-71
2024/02/15 00:06:47;;;;;;;37.75;21.00;;;11.90;99.90;;;;;;5075851;28;20021;-71
2024/02/15 00:09:13;;;;;;;42.85;21.75;;;11.90;99.90;;;;;;5076121;28;20033;-71
2024/02/15 00:11:39;;;;;;;37.80;21.95;;;11.90;99.90;;;;;;5075680;28;20024;-71
2024/02/15 00:14:05;;;;;;;36.28;21.83;;;11.90;99.90;;;;;;5075903;28;20037;-71
2024/02/15 00:16:30;;;;;;;36.47;21.50;;;12.00;99.90;;;;;;5075819;28;20044;-71
2024/02/15 00:18:56;;;;;;;34.72;20.65;;;11.90;99.90;;;;;;5075910;28;20039;-71
2024/02/15 00:21:22;;;;;;;35.22;20.42;;;11.90;99.90;;;;;;5075965;28;20036;-70
2024/02/15 00:23:48;;;;;;;33.70;18.60;;;11.90;99.90;;;;;;5075882;28;20040;-70
2024/02/15 00:26:14;;;;;;;32.45;18.50;;;11.90;99.90;;;;;;5075886;28;20497;-71
2024/02/15 00:28:42;;;;;;;29.00;18.33;;;11.90;99.90;;;;;;5075594;28;20032;-71
2024/02/15 00:31:08;;;;;;;40.42;19.27;;;11.90;99.90;;;;;;5075722;28;20024;-71
2024/02/15 00:33:35;;;;;;;31.52;17.90;;;11.90;99.90;;;;;;5075643;28;20137;-70
2024/02/15 00:36:01;;;;;;;32.55;19.20;;;11.90;99.90;;;;;;5075265;28;20031;-71
2024/02/15 00:38:27;;;;;;;30.15;19.17;;;11.90;99.90;;;;;;5075655;28;20021;-71
2024/02/15 00:40:53;;;;;;;30.17;19.30;;;11.90;99.90;;;;;;5075485;28;20032;-71
2024/02/15 00:43:19;;;;;;;35.33;20.25;;;11.90;99.90;;;;;;5075338;28;20055;-71
2024/02/15 00:45:45;;;;;;;36.58;19.20;;;11.90;99.90;;;;;;5074919;28;20021;-70
2024/02/15 00:48:11;;;;;;;38.50;20.80;;;11.90;99.90;;;;;;5075222;28;20081;-71
2024/02/15 00:50:37;;;;;;;33.70;21.08;;;11.90;99.90;;;;;;5074965;28;20051;-71
2024/02/15 00:53:02;;;;;;;37.15;21.60;;;11.90;99.90;;;;;;5074695;28;20075;-71
2024/02/15 00:55:28;;;;;;;38.78;21.85;;;11.80;99.90;;;;;;5075009;28;20036;-71
2024/02/15 00:57:53;;;;;;;38.85;22.98;;;11.90;99.90;;;;;;5074723;28;20497;-71
2024/02/15 01:00:20;;;;;;;38.28;22.00;;;11.90;99.90;;;;;;5074317;28;20025;-70
2024/02/15 01:02:46;;;;;;;44.58;22.63;;;11.90;99.90;;;;;;5074928;28;20032;-70
2024/02/15 01:05:11;;;;;;;42.03;22.55;;;11.80;99.90;;;;;;5074576;28;20051;-70
2024/02/15 01:07:37;;;;;;;42.95;23.55;;;11.90;99.90;;;;;;5074795;28;20310;-70
2024/02/15 01:10:03;;;;;;;43.50;25.15;;;11.90;99.90;;;;;;5074732;28;20431;-70
2024/02/15 01:12:29;;;;;;;44.15;23.65;;;11.90;99.90;;;;;;5074749;28;20619;-70
2024/02/15 01:14:56;;;;;;;45.53;23.60;;;11.80;99.90;;;;;;5074719;28;20090;-70
2024/02/15 01:17:22;;;;;;;46.58;23.80;;;11.90;99.90;;;;;;5074656;28;20536;-70
2024/02/15 01:19:47;;;;;;;46.83;25.17;;;11.80;99.90;;;;;;5074534;28;20091;-70
2024/02/15 01:22:13;;;;;;;46.03;25.67;;;11.90;99.90;;;;;;5073945;28;20055;-70
2024/02/15 01:24:38;;;;;;;46.33;25.30;;;11.90;99.90;;;;;;5074373;28;20059;-70
2024/02/15 01:27:05;;;;;;;45.55;24.58;;;11.90;99.90;;;;;;5074478;28;20111;-70
2024/02/15 01:29:31;;;;;;;50.00;25.45;;;11.90;99.90;;;;;;5074416;28;20028;-71
2024/02/15 01:31:57;;;;;;;50.42;26.65;;;11.90;99.90;;;;;;5074059;28;20566;-70
2024/02/15 01:34:22;;;;;;;46.70;24.88;;;11.80;99.90;;;;;;5074027;28;20036;-70
2024/02/15 01:36:49;;;;;;;52.03;27.33;;;11.90;99.90;;;;;;5074434;28;20107;-67
2024/02/15 01:39:16;;;;;;;56.95;27.08;;;11.90;99.90;;;;;;5074212;28;20037;-67
2024/02/15 01:41:48;;;;;;;50.47;27.27;;;11.90;99.90;;;;;;5074218;28;20028;-70
2024/02/15 01:44:14;;;;;;;52.00;26.77;;;11.90;99.90;;;;;;5074030;28;20601;-70
2024/02/15 01:46:40;;;;;;;52.65;28.35;;;11.90;99.90;;;;;;5074039;28;20060;-70
2024/02/15 01:49:07;;;;;;;56.25;26.95;;;11.90;99.90;;;;;;5074045;28;20063;-70
2024/02/15 01:51:35;;;;;;;56.63;27.95;;;11.90;99.90;;;;;;5073495;28;20505;-70
2024/02/15 01:54:01;;;;;;;52.17;27.13;;;11.90;99.90;;;;;;5073861;28;20028;-70
2024/02/15 01:56:28;;;;;;;58.45;27.83;;;11.90;99.90;;;;;;5073565;28;20040;-70
2024/02/15 01:58:54;;;;;;;51.08;27.30;;;11.90;99.90;;;;;;5073822;28;20042;-70
2024/02/15 02:01:21;;;;;;;51.63;28.45;;;11.90;99.90;;;;;;5073370;28;20056;-70
2024/02/15 02:03:47;;;;;;;50.10;27.50;;;11.90;99.90;;;;;;5073746;28;20051;-70
2024/02/15 02:06:13;;;;;;;49.95;27.30;;;11.90;99.90;;;;;;5073661;28;20028;-70
2024/02/15 02:08:39;;;;;;;47.28;26.35;;;12.00;99.90;;;;;;5073671;28;20039;-70
2024/02/15 02:11:05;;;;;;;50.67;28.23;;;11.90;99.90;;;;;;5073254;28;20017;-71
2024/02/15 02:13:31;;;;;;;51.97;27.35;;;12.00;99.90;;;;;;5073420;28;20111;-70
2024/02/15 02:15:56;;;;;;;49.80;27.98;;;12.00;99.90;;;;;;5073624;28;20486;-70
2024/02/15 02:18:25;;;;;;;51.13;27.65;;;12.00;99.90;;;;;;5073473;28;20036;-70
2024/02/15 02:20:50;;;;;;;50.13;26.73;;;11.90;99.90;;;;;;5073106;28;20036;-70
2024/02/15 02:23:19;;;;;;;52.25;27.50;;;11.90;99.90;;;;;;5073786;28;20032;-71
2024/02/15 02:25:46;;;;;;;47.00;25.83;;;11.90;99.90;;;;;;5073250;28;20029;-71
2024/02/15 02:28:12;;;;;;;47.95;26.63;;;11.90;99.90;;;;;;5073381;28;20017;-71
2024/02/15 02:30:41;;;;;;;56.40;26.95;;;11.90;99.90;;;;;;5073024;28;20020;-71
2024/02/15 02:33:11;;;;;;;51.92;26.52;;;11.90;99.90;;;;;;5073127;28;20029;-71
2024/02/15 02:35:37;;;;;;;46.90;26.55;;;12.00;99.90;;;;;;5072396;28;20035;-71
2024/02/15 02:38:03;;;;;;;48.95;27.13;;;11.90;99.90;;;;;;5073234;28;20028;-69
2024/02/15 02:40:28;;;;;;;53.47;26.38;;;11.90;99.90;;;;;;5073372;28;20060;-70
2024/02/15 02:42:56;;;;;;;50.88;25.02;;;12.00;99.90;;;;;;5073328;28;20490;-69
2024/02/15 02:45:22;;;;;;;49.47;24.85;;;12.00;99.90;;;;;;5072944;28;20029;-69
2024/02/15 02:47:49;;;;;;;46.28;25.35;;;12.00;99.90;;;;;;5073182;28;20024;-70
2024/02/15 02:50:15;;;;;;;47.05;24.02;;;12.00;99.90;;;;;;5073214;28;20024;-69
2024/02/15 02:52:41;;;;;;;41.10;22.77;;;12.00;99.90;;;;;;5073130;28;20036;-70
2024/02/15 02:55:08;;;;;;;42.95;23.63;;;12.00;99.90;;;;;;5073057;28;20074;-70
2024/02/15 02:57:37;;;;;;;43.45;22.42;;;11.90;99.90;;;;;;5073179;28;20039;-69
2024/02/15 03:00:07;;;;;;;40.88;20.60;;;11.90;99.90;;;;;;5073161;28;20032;-70
2024/02/15 03:02:35;;;;;;;42.42;21.05;;;11.90;99.90;;;;;;5072668;28;20057;-69
2024/02/15 03:05:03;;;;;;;36.80;20.75;;;11.90;99.90;;;;;;5073036;28;20504;-70
2024/02/15 03:07:28;;;;;;;44.00;21.38;;;11.90;99.90;;;;;;5072939;28;20029;-70
2024/02/15 03:09:54;;;;;;;43.08;20.48;;;11.90;99.90;;;;;;5072873;28;20021;-69
2024/02/15 03:12:19;;;;;;;35.97;20.35;;;11.90;99.90;;;;;;5072766;28;20020;-70
2024/02/15 03:14:45;;;;;;;36.60;19.65;;;11.90;99.90;;;;;;5072712;28;20098;-70
2024/02/15 03:17:11;;;;;;;34.38;19.45;;;11.90;99.90;;;;;;5072613;28;20150;-70
2024/02/15 03:19:36;;;;;;;36.53;19.02;;;11.90;99.90;;;;;;5072335;28;20024;-70
2024/02/15 03:22:02;;;;;;;34.97;19.30;;;11.90;99.90;;;;;;5072656;28;20028;-69
2024/02/15 03:24:28;;;;;;;31.05;18.25;;;11.90;99.90;;;;;;5072412;28;20371;-70
2024/02/15 03:26:55;;;;;;;32.28;18.85;;;11.80;99.90;;;;;;5072449;28;20379;-70
2024/02/15 03:29:22;;;;;;;32.38;18.17;;;11.80;99.90;;;;;;5072500;28;20502;-69
2024/02/15 03:31:49;;;;;;;34.20;17.95;;;11.80;99.90;;;;;;5072655;28;20031;-70
2024/02/15 03:34:15;;;;;;;31.88;18.70;;;11.80;99.90;;;;;;5072493;28;20029;-70
2024/02/15 03:36:41;;;;;;;34.45;18.17;;;11.80;99.90;;;;;;5072758;28;20024;-70
2024/02/15 03:39:08;;;;;;;32.08;18.83;;;11.80;99.90;;;;;;5072735;28;20031;-70
2024/02/15 03:41:34;;;;;;;34.75;19.92;;;11.70;99.90;;;;;;5072836;28;20024;-70
2024/02/15 03:44:00;;;;;;;36.90;20.45;;;11.80;99.90;;;;;;5072239;28;20033;-70
2024/02/15 03:46:26;;;;;;;43.20;20.52;;;11.80;99.90;;;;;;5074697;28;20023;-70
2024/02/15 03:48:53;;;;;;;31.80;20.40;;;11.70;99.90;;;;;;5076408;28;20083;-70
2024/02/15 03:51:20;;;;;;;34.78;21.23;;;11.70;99.90;;;;;;5076426;28;20040;-70
2024/02/15 03:53:48;;;;;;;42.53;22.17;;;11.80;99.90;;;;;;5076318;28;20028;-70
2024/02/15 03:56:14;;;;;;;40.88;21.15;;;11.70;99.90;;;;;;5076097;28;20021;-70
2024/02/15 03:58:39;;;;;;;41.38;22.02;;;11.70;99.90;;;;;;5076193;28;20504;-70
2024/02/15 04:01:06;;;;;;;36.17;22.00;;;11.70;99.90;;;;;;5075486;28;20505;-70
2024/02/15 04:03:34;;;;;;;41.40;22.52;;;11.70;99.90;;;;;;5076310;28;20056;-70
2024/02/15 04:06:00;;;;;;;41.50;21.35;;;11.70;99.90;;;;;;5075910;28;20123;-70
2024/02/15 04:08:25;;;;;;;40.10;23.58;;;11.70;99.90;;;;;;5075993;28;20108;-70
2024/02/15 04:10:52;;;;;;;30.70;20.25;;;11.70;99.90;;;;;;5075537;28;20446;-70
2024/02/15 04:13:17;;;;;;;42.83;20.50;;;11.70;99.90;;;;;;5076027;28;20025;-70
2024/02/15 04:15:44;;;;;;;31.08;18.58;;;11.70;99.90;;;;;;5075629;28;20394;-70
2024/02/15 04:18:10;;;;;;;31.05;19.73;;;11.70;99.90;;;;;;5075819;28;20035;-70
2024/02/15 04:20:36;;;;;;;34.58;20.15;;;11.70;99.90;;;;;;5075666;28;20028;-70
2024/02/15 04:23:02;;;;;;;37.22;19.73;;;11.60;99.90;;;;;;5075787;28;20028;-69
2024/02/15 04:25:27;;;;;;;31.42;19.67;;;11.60;99.90;;;;;;5075410;28;20032;-70
2024/02/15 04:27:53;;;;;;;36.67;19.90;;;11.60;99.90;;;;;;5075638;28;20425;-70
2024/02/15 04:30:19;;;;;;;34.90;19.00;;;11.60;99.90;;;;;;5075703;28;20078;-70
2024/02/15 04:32:46;;;;;;;33.42;19.40;;;11.60;99.90;;;;;;5075610;28;20028;-69
2024/02/15 04:35:12;;;;;;;34.33;18.48;;;11.60;99.90;;;;;;5075526;28;20436;-71
2024/02/15 04:37:38;;;;;;;34.35;18.58;;;11.70;99.90;;;;;;5075188;28;20028;-70
2024/02/15 04:40:09;;;;;;;30.05;17.40;;;11.60;99.90;;;;;;5075309;28;20039;-70
2024/02/15 04:42:39;;;;;;;36.05;18.02;;;11.60;99.90;;;;;;5075173;28;20103;-70
2024/02/15 04:45:08;;;;;;;26.63;16.85;;;11.70;99.90;;;;;;5074937;28;20409;-70
2024/02/15 04:47:34;;;;;;;28.33;16.75;;;11.60;99.90;;;;;;5075283;28;20432;-71
2024/02/15 04:49:59;;;;;;;22.77;15.40;;;11.60;99.90;;;;;;5075247;28;20032;-70
2024/02/15 04:52:25;;;;;;;26.35;16.90;;;11.60;99.90;;;;;;5075170;28;20111;-70
2024/02/15 04:54:51;;;;;;;27.65;15.85;;;11.60;99.90;;;;;;5075107;28;20029;-69
2024/02/15 04:57:17;;;;;;;29.60;17.52;;;11.50;99.90;;;;;;5074213;28;20029;-70
2024/02/15 04:59:46;;;;;;;28.27;17.23;;;11.50;99.90;;;;;;5074965;28;20170;-70
2024/02/15 05:02:13;;;;;;;29.33;17.15;;;11.50;99.90;;;;;;5074455;28;20075;-70
2024/02/15 05:04:42;;;;;;;31.33;16.60;;;11.50;99.90;;;;;;5074720;28;20025;-70
2024/02/15 05:07:08;;;;;;;29.33;16.40;;;11.50;99.90;;;;;;5074756;28;20025;-70
2024/02/15 05:09:34;;;;;;;23.77;15.82;;;11.50;99.90;;;;;;5074531;28;20123;-70
2024/02/15 05:12:02;;;;;;;27.80;17.10;;;11.60;99.90;;;;;;5074782;28;20028;-70
2024/02/15 05:14:28;;;;;;;28.05;16.83;;;11.50;99.90;;;;;;5074680;28;20548;-70
2024/02/15 05:16:54;;;;;;;25.65;15.55;;;11.50;99.90;;;;;;5074700;28;20111;-70
2024/02/15 05:19:19;;;;;;;25.50;15.95;;;11.50;99.90;;;;;;5074671;28;20636;-70
2024/02/15 05:21:46;;;;;;;35.60;18.10;;;11.50;99.90;;;;;;5074436;28;20032;-70
2024/02/15 05:24:13;;;;;;;35.22;17.65;;;11.50;99.90;;;;;;5074343;28;20479;-70
2024/02/15 05:26:40;;;;;;;30.85;17.42;;;11.50;99.90;;;;;;5074076;28;20059;-70
2024/02/15 05:29:05;;;;;;;32.47;18.60;;;11.50;99.90;;;;;;5074367;28;20037;-70
2024/02/15 05:31:31;;;;;;;30.98;17.42;;;11.50;99.90;;;;;;5074189;28;20020;-70
2024/02/15 05:33:57;;;;;;;30.48;18.25;;;11.60;99.90;;;;;;5074317;28;20029;-70
2024/02/15 05:36:25;;;;;;;27.67;18.20;;;11.60;99.90;;;;;;5074259;28;20031;-70
2024/02/15 05:38:53;;;;;;;35.70;18.70;;;11.60;99.90;;;;;;5074338;28;20048;-70
2024/02/15 05:41:20;;;;;;;28.35;17.67;;;11.60;99.90;;;;;;5074245;28;20025;-70
2024/02/15 05:43:48;;;;;;;30.17;17.95;;;11.60;99.90;;;;;;5073674;28;20063;-70
2024/02/15 05:46:14;;;;;;;31.92;18.17;;;11.60;99.90;;;;;;5073982;28;20039;-70
2024/02/15 05:48:41;;;;;;;35.72;17.73;;;11.60;99.90;;;;;;5073983;28;20028;-70
2024/02/15 05:51:07;;;;;;;34.33;17.92;;;11.60;99.90;;;;;;5073945;28;20020;-70
2024/02/15 05:53:35;;;;;;;33.72;18.65;;;11.60;99.90;;;;;;5073625;28;20024;-70
2024/02/15 05:56:04;;;;;;;29.08;17.23;;;11.60;99.90;;;;;;5073467;28;20108;-70
2024/02/15 05:58:30;;;;;;;27.88;18.00;;;11.50;99.90;;;;;;5073619;28;20059;-70
2024/02/15 06:01:01;;;;;;;31.10;16.70;;;11.60;99.90;;;;;;5073222;28;20524;-70
2024/02/15 06:03:31;;;;;;;26.33;16.90;;;11.50;99.90;;;;;;5073830;28;20082;-70
2024/02/15 06:05:58;;;;;;;30.13;16.00;;;11.50;99.90;;;;;;5073237;28;20090;-70
2024/02/15 06:08:25;;;;;;;32.05;16.90;;;11.50;99.90;;;;;;5073490;28;20497;-70
2024/02/15 06:10:52;;;;;;;30.95;16.33;;;11.50;99.90;;;;;;5073551;28;20025;-70
2024/02/15 06:13:18;;;;;;;25.02;15.00;;;11.50;99.90;;;;;;5073907;28;20024;-70
2024/02/15 06:15:43;;;;;;;26.35;14.93;;;11.50;99.90;;;;;;5073687;28;20028;-70
2024/02/15 06:18:14;;;;;;;22.95;14.23;;;11.50;99.90;;;;;;5073540;28;20052;-70
2024/02/15 06:20:40;;;;;;;29.02;14.18;;;11.50;99.90;;;;;;5073432;28;20036;-70
2024/02/15 06:23:07;;;;;;;27.63;14.25;;;11.50;99.90;;;;;;5073050;28;20035;-70
2024/02/15 06:25:33;;;;;;;23.73;13.70;;;11.50;99.90;;;;;;5073114;28;20029;-71
2024/02/15 06:28:02;;;;;;;24.45;14.13;;;11.40;99.90;;;;;;5073394;28;20043;-70
2024/02/15 06:41:35;;;;;;;23.05;11.00;;;11.60;99.90;;;;;;5072834;28;20066;-71
2024/02/15 06:44:01;;;;;;;17.52;10.95;;;11.60;99.90;;;;;;5072800;28;20036;-70
2024/02/15 06:46:27;;;;;;;18.52;9.95;;;11.70;99.90;;;;;;5073248;28;20031;-70
2024/02/15 06:48:52;;;;;;;19.45;9.70;;;11.70;99.90;;;;;;5073164;28;20544;-70
2024/02/15 06:51:18;;;;;;;16.48;8.55;;;11.70;99.90;;;;;;5073166;28;20016;-70
2024/02/15 06:53:44;;;;;;;14.70;8.68;;;11.70;99.90;;;;;;5072747;28;20017;-70
2024/02/15 06:56:10;;;;;;;19.10;8.60;;;11.70;99.90;;;;;;5072667;28;20051;-71
2024/02/15 06:58:36;;;;;;;14.23;8.10;;;11.80;99.90;;;;;;5072593;28;20032;-70
2024/02/15 07:01:02;;;;;;;14.10;7.55;;;11.80;99.90;;;;;;5072573;28;20406;-71
2024/02/15 07:03:32;;;;;;;10.85;6.53;;;11.80;99.90;;;;;;5072631;28;20024;-70
2024/02/15 07:05:57;;;;;;;9.60;6.57;;;11.80;99.90;;;;;;5072473;28;20496;-71
2024/02/15 07:08:24;;;;;;;13.13;6.38;;;11.90;99.90;;;;;;5072966;28;20032;-71
2024/02/15 07:10:51;;;;;;;16.02;6.35;;;11.90;99.90;;;;;;5072981;28;20021;-71
2024/02/15 07:13:17;;;;;;;12.07;6.25;;;12.00;99.90;;;;;;5072852;28;20020;-70
2024/02/15 07:15:44;;;;;;;13.02;6.38;;;12.00;99.90;;;;;;5072855;28;20024;-70
2024/02/15 07:18:12;;;;;;;11.45;5.28;;;12.00;99.90;;;;;;5072775;28;20385;-70
2024/02/15 07:20:37;;;;;;;8.73;5.20;;;12.00;99.90;;;;;;5073332;28;20124;-70
2024/02/15 07:23:03;;;;;;;13.65;6.20;;;12.00;99.90;;;;;;5076661;28;20115;-71
2024/02/15 07:25:29;;;;;;;11.90;6.25;;;12.00;99.90;;;;;;5064021;28;20506;-70
2024/02/15 07:27:56;;;;;;;9.25;5.15;;;12.00;99.90;;;;;;5063519;28;20031;-70
2024/02/15 07:30:22;;;;;;;12.57;6.15;;;11.90;99.90;;;;;;5066816;28;20025;-70
2024/02/15 07:32:49;;;;;;;11.63;5.38;;;11.90;99.90;;;;;;5055987;28;20029;-71
2024/02/15 07:35:17;;;;;;;11.48;4.68;;;11.90;99.90;;;;;;5056467;28;20060;-72
2024/02/15 07:38:00;;;;;;;10.43;5.00;;;11.90;99.90;;;;;;5056355;28;20060;-70
2024/02/15 07:40:28;;;;;;;12.48;4.45;;;11.90;99.90;;;;;;5056419;28;20025;-71
2024/02/15 07:42:56;;;;;;;12.88;4.90;;;11.90;99.90;;;;;;5056344;28;20057;-70
2024/02/15 07:45:23;;;;;;;10.65;5.03;;;11.90;99.90;;;;;;5056021;28;20393;-70
2024/02/15 07:47:48;;;;;;;13.70;5.82;;;11.90;99.90;;;;;;5056218;28;20039;-70
2024/02/15 07:50:20;;;;;;;11.43;6.40;;;11.90;99.90;;;;;;5056184;28;20020;-71
2024/02/15 07:52:46;;;;;;;11.25;5.57;;;11.90;99.90;;;;;;5055858;28;20025;-70
2024/02/15 07:55:12;;;;;;;10.73;5.05;;;11.90;99.90;;;;;;5073181;28;20024;-69
2024/02/15 07:57:38;;;;;;;14.55;6.15;;;11.90;99.90;;;;;;5075842;28;20039;-69
2024/02/15 08:00:10;;;;;;;13.82;5.38;;;11.90;99.90;;;;;;5075528;28;20113;-68
2024/02/15 08:02:40;;;;;;;9.50;4.95;;;11.90;99.90;;;;;;5075953;28;20079;-68
2024/02/15 08:05:09;;;;;;;11.00;4.75;;;11.90;99.90;;;;;;5075814;28;20033;-69
2024/02/15 08:07:44;;;;;;;13.63;4.50;;;11.90;99.90;;;;;;5075571;28;20394;-68
2024/02/15 08:10:12;;;;;;;13.15;4.93;;;11.90;99.90;;;;;;5075889;28;20463;-68
2024/02/15 08:12:42;;;;;;;11.57;4.65;;;11.90;99.90;;;;;;5075960;28;20024;-67
2024/02/15 08:15:12;;;;;;;8.15;4.25;;;11.90;99.90;;;;;;5075851;28;20078;-68
2024/02/15 08:17:39;;;;;;;10.00;5.15;;;11.90;99.90;;;;;;5074744;28;20450;-68
2024/02/15 08:20:09;;;;;;;15.05;4.40;;;11.90;99.90;;;;;;5075398;28;20398;-68
2024/02/15 08:22:35;;;;;;;14.98;4.88;;;11.90;99.90;;;;;;5074145;28;20028;-69
2024/02/15 08:25:01;;;;;;;15.27;5.05;;;11.90;99.90;;;;;;5075521;28;20379;-68
2024/02/15 08:27:27;;;;;;;13.32;4.95;;;11.90;99.90;;;;;;5075313;28;20029;-69
2024/02/15 08:29:53;;;;;;;9.43;4.45;;;11.90;99.90;;;;;;5075704;28;20029;-69
2024/02/15 08:32:19;;;;;;;10.30;4.72;;;12.00;99.90;;;;;;5075557;28;20108;-69
2024/02/15 08:34:48;;;;;;;10.23;4.65;;;12.00;99.90;;;;;;5075328;28;20024;-69
2024/02/15 08:37:14;;;;;;;10.35;4.32;;;12.00;99.90;;;;;;5075056;28;20029;-70
2024/02/15 08:39:39;;;;;;;11.13;4.05;;;12.10;99.90;;;;;;5075297;28;20452;-69
2024/02/15 08:42:05;;;;;;;10.07;4.13;;;12.10;99.90;;;;;;5075326;28;20032;-69
2024/02/15 08:44:31;;;;;;;7.93;4.07;;;12.10;99.90;;;;;;5075200;28;20426;-68
2024/02/15 08:46:56;;;;;;;13.45;4.75;;;12.10;99.90;;;;;;5075232;28;20107;-69
2024/02/15 08:49:22;;;;;;;10.85;4.55;;;12.20;99.90;;;;;;5075296;28;20028;-69
2024/02/15 08:51:47;;;;;;;12.00;4.78;;;12.20;99.90;;;;;;5074596;28;20075;-70
2024/02/15 08:54:13;;;;;;;10.32;4.57;;;12.30;99.90;;;;;;5075071;28;20429;-70
2024/02/15 08:56:38;;;;;;;9.32;4.40;;;12.30;99.90;;;;;;5074590;28;20425;-70
2024/02/15 08:59:04;;;;;;;11.10;4.38;;;12.30;99.90;;;;;;5074912;28;20090;-69
2024/02/15 09:01:30;;;;;;;9.60;4.80;;;12.40;99.90;;;;;;5074513;28;20060;-74
2024/02/15 09:03:56;;;;;;;12.57;4.57;;;12.40;99.90;;;;;;5074488;28;20029;-69
2024/02/15 09:06:22;;;;;;;9.60;4.38;;;12.40;99.90;;;;;;5074855;28;20028;-69
2024/02/15 09:08:48;;;;;;;10.32;4.63;;;12.40;99.90;;;;;;5074719;28;20078;-69
2024/02/15 09:11:14;;;;;;;9.93;4.55;;;12.40;99.90;;;;;;5074779;28;20028;-69
2024/02/15 09:13:39;;;;;;;15.60;4.80;;;12.40;99.90;;;;;;5074739;28;20479;-69
2024/02/15 09:16:05;;;;;;;10.38;4.72;;;12.40;99.90;;;;;;5074236;28;20024;-69
2024/02/15 09:18:33;;;;;;;13.35;5.00;;;12.40;99.90;;;;;;5073890;28;20073;-69
2024/02/15 09:20:58;;;;;;;11.82;4.15;;;12.40;99.90;;;;;;5074433;28;20024;-69
2024/02/15 09:23:25;;;;;;;14.07;4.60;;;12.40;99.90;;;;;;5074400;28;20031;-69
2024/02/15 09:25:52;;;;;;;9.20;4.20;;;12.50;99.90;;;;;;5073862;28;20037;-69
2024/02/15 09:28:25;;;;;;;8.98;4.03;;;12.50;99.90;;;;;;5074231;28;20035;-69
2024/02/15 09:30:51;;;;;;;6.72;3.42;;;12.50;99.90;;;;;;5074403;28;20021;-69
2024/02/15 09:33:19;;;;;;;10.02;4.30;;;12.50;99.90;;;;;;5074229;28;20398;-69
2024/02/15 09:35:44;;;;;;;8.55;3.88;;;12.60;99.90;;;;;;5074147;28;20037;-69
2024/02/15 09:38:10;;;;;;;7.80;3.75;;;12.70;99.90;;;;;;5073377;28;20032;-69
2024/02/15 09:40:35;;;;;;;7.07;3.78;;;12.70;99.90;;;;;;5073914;28;20486;-69
2024/02/15 09:43:01;;;;;;;8.43;3.70;;;12.80;99.90;;;;;;5073299;28;20051;-69
2024/02/15 09:45:27;;;;;;;8.85;3.58;;;13.00;99.90;;;;;;5073655;28;20033;-68
2024/02/15 09:47:54;;;;;;;10.13;3.70;;;13.00;99.90;;;;;;5073894;28;20055;-70
2024/02/15 09:50:19;;;;;;;9.35;3.90;;;13.00;99.90;;;;;;5073894;28;20035;-68
2024/02/15 09:52:51;;;;;;;9.43;3.55;;;13.10;99.90;;;;;;5073280;28;20012;-68
2024/02/15 09:55:16;;;;;;;10.30;3.83;;;13.00;99.90;;;;;;5073540;28;20032;-69
2024/02/15 09:57:44;;;;;;;7.30;3.95;;;12.90;99.90;;;;;;5073742;28;20028;-69
2024/02/15 10:00:14;;;;;;;10.75;3.65;;;12.90;99.90;;;;;;5073632;28;20040;-67
2024/02/15 10:02:44;;;;;;;7.85;3.60;;;12.80;99.90;;;;;;5073777;28;20117;-69
2024/02/15 10:05:11;;;;;;;4.60;3.35;;;12.80;99.90;;;;;;5073649;28;20029;-69
2024/02/15 10:07:41;;;;;;;10.15;3.80;;;12.70;99.90;;;;;;5073109;28;20051;-69
2024/02/15 10:10:23;;;;;;;7.30;3.15;;;12.70;99.90;;;;;;5073726;28;20074;-69
2024/02/15 10:12:56;;;;;;;9.63;3.50;;;12.60;99.90;;;;;;5073407;28;20028;-69
2024/02/15 10:15:38;;;;;;;8.65;3.80;;;12.60;99.90;;;;;;5073447;28;20032;-69
2024/02/15 10:18:08;;;;;;;11.65;3.67;;;12.60;99.90;;;;;;5072820;28;20032;-69
2024/02/15 10:20:35;;;;;;;6.38;3.38;;;12.50;99.90;;;;;;5073144;28;20047;-69
2024/02/15 10:25:40;;;;;;;9.40;4.13;;;12.60;99.90;;;;;;5110996;27;20292;-70
2024/02/15 10:28:07;;;;;;;11.18;4.97;;;12.60;99.90;;;;;;5110788;28;20039;-70
2024/02/15 10:30:34;;;;;;;9.80;5.25;;;12.70;99.90;;;;;;5111170;28;20027;-70
2024/02/15 10:33:01;;;;;;;11.60;4.93;;;12.70;99.90;;;;;;5110863;28;20027;-70
2024/02/15 10:35:27;;;;;;;9.55;4.03;;;12.80;99.90;;;;;;5111069;28;20028;-71
2024/02/15 10:38:07;;;;;;;8.00;4.43;;;12.80;99.90;;;;;;5110997;28;20077;-71
2024/02/15 10:40:33;;;;;;;8.85;4.50;;;12.80;99.90;;;;;;5090689;28;20486;-69
2024/02/15 10:43:02;;;;;;;8.68;4.60;;;12.90;99.90;;;;;;5090665;28;20039;-70
2024/02/15 10:45:28;;;;;;;11.27;4.25;;;12.90;99.90;;;;;;5090146;28;20035;-70
2024/02/15 10:47:54;;;;;;;11.48;5.00;;;12.90;99.90;;;;;;5108497;28;20481;-72
2024/02/15 10:50:20;;;;;;;8.65;4.30;;;12.90;99.90;;;;;;5110861;28;20024;-70
2024/02/15 10:52:55;;;;;;;9.13;4.65;;;12.90;99.90;;;;;;5110840;28;20554;-70
2024/02/15 10:55:32;;;;;;;9.27;4.20;;;12.90;99.90;;;;;;5110385;28;20063;-70
2024/02/15 10:58:03;;;;;;;9.15;5.10;;;13.00;99.90;;;;;;5110672;28;20043;-71
2024/02/15 11:00:31;;;;;;;11.10;4.93;;;13.00;99.90;;;;;;5110392;28;20161;-70
2024/02/15 11:03:05;;;;;;;13.02;8.05;;;13.00;99.90;;;;;;5110494;28;20039;-69
2024/02/15 11:05:34;;;;;;;13.18;6.88;;;13.00;99.90;;;;;;5110472;28;20036;-69
2024/02/15 11:08:03;;;;;;;8.90;4.13;;;13.10;99.90;;;;;;5110151;28;20034;-69
2024/02/15 11:10:30;;;;;;;11.30;5.03;;;13.10;99.90;;;;;;5110232;28;20032;-69
2024/02/15 11:12:58;;;;;;;6.97;4.50;;;13.10;99.90;;;;;;5110049;28;20020;-69
2024/02/15 11:15:49;;;;;;;9.45;5.30;;;13.10;99.90;;;;;;5110448;28;20024;-70
2024/02/15 11:18:48;;;;;;;10.63;4.45;;;13.10;99.90;;;;;;5110206;28;20055;-70
2024/02/15 11:21:16;;;;;;;14.55;5.28;;;13.20;99.90;;;;;;5109785;28;20107;-70
2024/02/15 11:23:41;;;;;;;8.93;4.35;;;13.30;99.90;;;;;;5109711;28;20048;-70
2024/02/15 11:26:10;;;;;;;10.45;4.15;;;13.30;99.90;;;;;;5110182;28;20024;-70
2024/02/15 11:28:38;;;;;;;6.28;3.90;;;13.40;99.90;;;;;;5109854;28;20024;-69
2024/02/15 11:31:07;;;;;;;9.60;4.25;;;13.50;99.90;;;;;;5108650;27;20473;-70
2024/02/15 11:33:35;;;;;;;9.60;3.83;;;13.50;99.90;;;;;;5110022;28;20032;-70
2024/02/15 11:36:05;;;;;;;6.38;4.43;;;13.60;99.90;;;;;;5101673;28;20393;-70
2024/02/15 11:38:31;;;;;;;9.15;4.45;;;13.80;99.90;;;;;;5096208;28;20024;-70
2024/02/15 11:41:00;;;;;;;9.82;4.30;;;13.80;99.90;;;;;;5096433;28;20393;-70
2024/02/15 11:43:50;;;;;;;9.00;3.95;;;13.80;99.90;;;;;;5095997;28;20508;-70
2024/02/15 11:46:19;;;;;;;9.88;3.72;;;13.90;99.90;;;;;;5075867;28;20107;-70
2024/02/15 11:48:46;;;;;;;11.07;4.05;;;14.00;99.90;;;;;;5075902;28;20028;-70
2024/02/15 11:51:25;;;;;;;6.78;3.63;;;14.00;99.90;;;;;;5075891;28;20085;-70
2024/02/15 11:54:08;;;;;;;8.20;3.78;;;13.90;99.90;;;;;;5095401;28;20118;-70
2024/02/15 11:56:54;;;;;;;15.35;4.40;;;13.90;99.90;;;;;;5095988;28;20039;-71
2024/02/15 11:59:53;;;;;;;14.10;4.60;;;14.10;99.90;;;;;;5077853;28;20106;-70
2024/02/15 12:18:52;;;;;;;7.70;3.30;;;14.30;99.90;;;;;;5094732;28;20028;-70
2024/02/15 12:21:23;;;;;;;6.38;3.50;;;14.30;99.90;;;;;;5094842;28;20024;-69
2024/02/15 12:23:49;;;;;;;8.15;3.65;;;14.30;99.90;;;;;;5093955;28;20097;-70
2024/02/15 12:26:19;;;;;;;6.68;2.97;;;14.30;99.90;;;;;;5095154;28;20020;-72
2024/02/15 12:28:50;;;;;;;7.30;2.85;;;14.30;99.90;;;;;;5093998;28;20031;-70
2024/02/15 12:31:16;;;;;;;7.95;2.97;;;14.40;99.90;;;;;;5094797;28;20026;-72
2024/02/15 12:33:42;;;;;;;6.85;2.75;;;14.50;99.90;;;;;;5095049;28;20111;-70
2024/02/15 12:36:08;;;;;;;9.43;2.60;;;14.50;99.90;;;;;;5095123;28;20024;-70
2024/02/15 12:38:37;;;;;;;6.25;2.42;;;14.50;99.90;;;;;;5094772;28;20398;-70
2024/02/15 12:41:18;;;;;;;4.35;2.67;;;14.60;99.90;;;;;;5094713;28;20020;-70
2024/02/15 12:43:43;;;;;;;3.92;1.98;;;14.50;99.90;;;;;;5094900;28;20028;-70
2024/02/15 12:46:09;;;;;;;7.10;2.38;;;14.50;99.90;;;;;;5094680;28;20533;-69
2024/02/15 12:48:35;;;;;;;6.55;2.15;;;14.60;99.90;;;;;;5093990;28;20039;-69
2024/02/15 12:51:14;;;;;;;10.73;2.63;;;14.60;99.90;;;;;;5094418;28;20473;-70
2024/02/15 12:53:41;;;;;;;8.27;2.28;;;14.60;99.90;;;;;;5094434;28;20040;-70
2024/02/15 12:56:09;;;;;;;8.88;2.50;;;14.60;99.90;;;;;;5094593;28;20524;-71
2024/02/15 12:58:35;;;;;;;8.35;2.30;;;14.70;99.90;;;;;;5094402;28;20554;-71
2024/02/15 13:01:01;;;;;;;8.52;2.20;;;14.80;99.90;;;;;;5094045;28;20056;-70
2024/02/15 13:03:27;;;;;;;5.13;2.45;;;14.80;99.90;;;;;;5094518;28;20394;-70
2024/02/15 13:05:53;;;;;;;6.32;2.40;;;14.90;99.90;;;;;;5094635;28;20031;-70